Terminal Aerodrome Forecast
Issued by NWS

Home | Current Version | Previous Version | Text Only | Print | Product List | Glossary On
Versions: 1 2 3 4 5 6 7 8 9 10 11 12 13
234
FTUS46 KPDT 262321
TAFPSC
TAF
KPSC 262321Z 2700/2724 VRB05KT P6SM -SHRA SCT050 BKN080
      TEMPO 2700/2703 6SM SHRA BR SCT030 OVC040
     FM270600 VRB05KT P6SM SCT050 BKN080
     FM271200 23007KT P6SM SCT060 BKN100
     FM272000 24012G20KT P6SM SCT080=

USA.gov is the U.S. government's official web portal to all federal, state and local government web resources and services.